Fairview Crossroads, South Carolina
Current Conditions -  °F | °C
As of 11:56 AM on Saturday 22 Nov 2014 (Local Time) from KCAE Reporting Station
Clear Clear  
Wind Chill: 54°   Ceiling: Unl
Heat Index: 54°   Visibility: 10mi
Dew Point: 19°   Wind: 7mph
Humidity: 25%   Direction: 80°E
Pressure: 30.48"   Gusts: NA
Location:  33.8822°N, 81.433°W
Report Text: KCAE 221656Z 08006KT 10SM CLR 12/M07 A3048 RMK AO2 SLP322 T01221072
Loading
Personal Weather Stations






























Interactive Weather Map New forecast layout! Learn more

10-Day Weather Forecast

Advertisements
Track Severe Weather on mobile